ADDS METAR Data INFO
IDs: Format: Raw Decoded Include TAF

Data at: 0213 UTC 17 Aug 2018

PFNO 170156Z AUTO 22015KT 10SM CLR 16/06 A2975 RMK AO2 SLP073 T01610056
PFNO 170056Z AUTO 21012KT 9SM CLR 16/05 A2976 RMK AO2 SLP076 T01560050
PFNO 162356Z AUTO 21012KT 10SM CLR 15/06 A2976 RMK AO2 SLP079 T01500056 10150 20106 58011
PFNO 162256Z AUTO 23012KT 10SM CLR 14/05 A2978 RMK AO2 SLP084 T01390050
PFNO 162156Z AUTO 23008KT 10SM CLR 13/06 A2979 RMK AO2 SLP089 T01280056
PFNO 162056Z AUTO 22009KT 10SM SCT090 12/06 A2980 RMK AO2 SLP090 T01220061 56006
PFNO 161956Z AUTO 22011KT 10SM OVC090 11/06 A2980 RMK AO2 SLP092 T01110056
PFNO 161856Z AUTO 22008KT 10SM OVC090 11/06 A2981 RMK AO2 SLP093 T01060061
PFNO 161756Z AUTO 22009KT 10SM SCT085 11/06 A2981 RMK AO2 SLP096 T01060061 10106 20083 58003
PFNO 161656Z AUTO 22007KT 10SM OVC110 09/07 A2982 RMK AO2 SLP098 T00940067
PFNO 161556Z AUTO 22006KT 10SM BKN085 BKN120 09/07 A2983 RMK AO2 SLP101 T00940067
PFNO 161456Z AUTO 22009KT 10SM SCT085 BKN120 09/07 A2982 RMK AO2 SLP099 T00890067 58010
PFNO 161356Z AUTO 20006KT 10SM CLR 08/07 A2983 RMK AO2 SLP102 T00830067
PFNO 161256Z AUTO 23008KT 10SM BKN075 09/07 A2984 RMK AO2 SLP106 T00890072
PFNO 161156Z AUTO 22007KT 10SM CLR 09/07 A2985 RMK AO2 SLP108 T00940072 10106 20083 56008
PFNO 161056Z AUTO 23011KT 10SM BKN060 BKN075 10/08 A2986 RMK AO2 SLP110 T01000078
PFNO 160956Z AUTO 22006KT 10SM FEW060 09/07 A2986 RMK AO2 SLP112 T00890067
PFNO 160856Z AUTO 21005KT 10SM BKN060 09/07 A2988 RMK AO2 SLP116 T00940067 401110006 56004
PFNO 160756Z AUTO 20004KT 10SM FEW060 10/06 A2988 RMK AO2 SLP117 T01000061
PFNO 160656Z AUTO 25006KT 10SM CLR 10/07 A2988 RMK AO2 SLP119 T01000067
PFNO 160556Z AUTO 25007KT 10SM OVC060 11/07 A2989 RMK AO2 SLP121 60000 T01060067 10111 20089 58006
PFNO 160456Z AUTO 26010KT 10SM FEW060 11/06 A2989 RMK AO2 SLP123 T01110061
PFNO 160356Z AUTO 26009KT 10SM FEW060 SCT110 11/06 A2990 RMK AO2 SLP127 T01060061
PFNO 160338Z AUTO 26009KT 10SM SCT019 BKN060 OVC120 11/06 A2991 RMK AO2
PFNO 160256Z AUTO 26013KT 10SM BKN017 11/06 A2991 RMK AO2 SLP127 60000 T01060061 56007
PFNO 160156Z AUTO 26012KT 10SM BKN017 BKN024 11/07 A2991 RMK AO2 SLP129 T01060067
PFNO 160134Z AUTO 26013KT 10SM BKN017 BKN022 11/07 A2991 RMK AO2
PFNO 160056Z AUTO 26008KT 10SM SCT035 BKN065 10/07 A2992 RMK AO2 RAE43 SLP132 P0000 T01000067
PFNO 152356Z AUTO 26007KT 10SM -RA BKN050 OVC060 09/06 A2993 RMK AO2 SLP135 P0000 60000 T00890056 10100 20033 50000
PFNO 152256Z AUTO 30005KT 10SM -RA FEW048 OVC060 09/06 A2993 RMK AO2 SLP136 P0000 T00890056
PFNO 152156Z AUTO 30007KT 10SM -RA OVC060 09/03 A2993 RMK AO2 SLP137 P0000 T00890028
PFNO 152056Z AUTO 29007KT 10SM -RA BKN060 OVC080 09/02 A2993 RMK AO2 RAB50 SLP135 P0000 60000 T00940022 53004
PFNO 151956Z AUTO 28008KT 10SM CLR 09/03 A2992 RMK AO2 SLP133 T00890028
PFNO 151856Z AUTO 00000KT 10SM CLR 06/02 A2992 RMK AO2 SLP132 T00610022
PFNO 151756Z AUTO 00000KT 10SM CLR 03/01 A2992 RMK AO2 SLP131 T00330011 10050 20006 53003
PFNO 151656Z AUTO 07004KT 10SM CLR 02/01 A2991 RMK AO2 SLP129 T00170006 FZRANO
PFNO 151556Z AUTO 09004KT 10SM CLR 01/00 A2990 RMK AO2 SLP126 T00060000 FZRANO
PFNO 151456Z AUTO 02004KT 10SM CLR 03/01 A2991 RMK AO2 SLP128 T00280011 51001